createdAt,value
2023-03-29T00:00:07.057Z,993.1772
2023-03-29T00:01:01.983Z,993.1492
2023-03-29T00:02:02.306Z,993.1214
2023-03-29T00:03:01.835Z,993.1146
2023-03-29T00:04:02.830Z,992.8364
2023-03-29T00:05:03.383Z,993.087
2023-03-29T00:06:02.184Z,992.9037
2023-03-29T00:07:01.631Z,992.8643
2023-03-29T00:08:02.133Z,992.9869
2023-03-29T00:09:03.301Z,992.9029
2023-03-29T00:10:02.115Z,992.7592
2023-03-29T00:11:01.777Z,992.8844
2023-03-29T00:12:02.138Z,992.9719
2023-03-29T00:13:01.538Z,992.8844
2023-03-29T00:14:02.034Z,992.9494
2023-03-29T00:15:01.554Z,992.8819
2023-03-29T00:16:02.034Z,992.8845
2023-03-29T00:17:01.524Z,992.89
2023-03-29T00:18:03.687Z,992.7796
2023-03-29T00:19:01.507Z,992.758
2023-03-29T00:20:03.624Z,992.942
2023-03-29T00:21:01.605Z,992.8103
2023-03-29T00:22:03.566Z,992.9119
2023-03-29T00:23:01.402Z,992.7804
2023-03-29T00:24:01.891Z,992.7237
2023-03-29T00:25:02.998Z,992.888
2023-03-29T00:26:01.798Z,992.7428
2023-03-29T00:27:02.273Z,992.7708
2023-03-29T00:28:01.811Z,993.0766
2023-03-29T00:29:02.264Z,992.7404
2023-03-29T00:30:01.786Z,992.8098
2023-03-29T00:31:02.501Z,992.6831
2023-03-29T00:32:01.710Z,992.6194
2023-03-29T00:33:02.285Z,992.6262
2023-03-29T00:34:01.717Z,992.618
2023-03-29T00:35:02.197Z,992.757
2023-03-29T00:36:01.777Z,992.6796
2023-03-29T00:37:02.185Z,992.7575
2023-03-29T00:38:01.642Z,992.6804
2023-03-29T00:39:03.827Z,992.6796
2023-03-29T00:40:01.639Z,992.7624
2023-03-29T00:41:02.253Z,992.565
2023-03-29T00:42:01.558Z,992.9057
2023-03-29T00:43:02.108Z,992.8238
2023-03-29T00:44:01.591Z,992.6411
2023-03-29T00:45:02.067Z,992.7247
2023-03-29T00:46:01.585Z,992.6405
2023-03-29T00:47:02.043Z,992.5281
2023-03-29T00:48:01.572Z,992.563
2023-03-29T00:49:01.955Z,992.5
2023-03-29T00:50:01.514Z,992.5849
2023-03-29T00:51:03.876Z,992.7528
2023-03-29T00:52:03.067Z,992.5779
2023-03-29T00:53:03.559Z,992.5991
2023-03-29T00:54:01.373Z,992.5855
2023-03-29T00:55:01.961Z,992.4808
2023-03-29T00:56:03.011Z,992.4808
2023-03-29T00:57:01.824Z,992.8459
2023-03-29T00:58:02.263Z,992.5945
2023-03-29T00:59:03.393Z,992.5596
2023-03-29T01:00:03.870Z,992.4899
2023-03-29T01:01:03.619Z,992.5673
2023-03-29T01:02:04.043Z,992.54
2023-03-29T01:03:03.449Z,992.694
2023-03-29T01:04:02.309Z,992.3231
2023-03-29T01:05:01.617Z,992.5893
2023-03-29T01:06:02.118Z,992.4209
2023-03-29T01:07:01.680Z,992.5332
2023-03-29T01:08:02.109Z,992.5681
2023-03-29T01:09:02.984Z,992.533
2023-03-29T01:10:01.731Z,992.5051
2023-03-29T01:11:02.409Z,992.4209
2023-03-29T01:12:01.736Z,992.6529
2023-03-29T01:13:02.199Z,992.3722
2023-03-29T01:14:01.631Z,992.4215
2023-03-29T01:15:02.129Z,992.5482
2023-03-29T01:16:01.582Z,992.3161
2023-03-29T01:17:02.051Z,992.4209
2023-03-29T01:18:01.600Z,992.3852
2023-03-29T01:19:02.038Z,992.4201
2023-03-29T01:20:01.524Z,992.455
2023-03-29T01:21:02.042Z,992.5596
2023-03-29T01:22:01.590Z,992.335
2023-03-29T01:23:01.947Z,992.4899
2023-03-29T01:24:01.397Z,992.4899
2023-03-29T01:25:01.873Z,992.455
2023-03-29T01:26:01.392Z,992.3631
2023-03-29T01:27:01.895Z,992.5667
2023-03-29T01:28:01.318Z,992.2227
2023-03-29T01:29:02.015Z,992.4899
2023-03-29T01:30:02.287Z,992.5027
2023-03-29T01:31:02.008Z,992.8459
2023-03-29T01:32:02.340Z,992.4246
2023-03-29T01:33:01.786Z,992.3685
2023-03-29T01:34:02.178Z,992.2281
2023-03-29T01:35:01.716Z,992.4034
2023-03-29T01:36:03.916Z,992.2698
2023-03-29T01:37:01.657Z,992.1719
2023-03-29T01:38:02.145Z,992.2561
2023-03-29T01:39:01.633Z,992.1438
2023-03-29T01:40:02.124Z,992.2
2023-03-29T01:41:01.719Z,992.3685
2023-03-29T01:42:02.142Z,992.2219
2023-03-29T01:43:03.229Z,992.18
2023-03-29T01:44:02.036Z,992.0824
2023-03-29T01:45:03.239Z,992.307
2023-03-29T01:46:02.065Z,992.1462
2023-03-29T01:47:01.499Z,992.1045
2023-03-29T01:48:02.137Z,991.9641
2023-03-29T01:49:03.148Z,992.1674
2023-03-29T01:50:03.633Z,992.3852
2023-03-29T01:51:01.732Z,992.0909
2023-03-29T01:52:01.970Z,991.9641
2023-03-29T01:53:03.079Z,991.9497
2023-03-29T01:54:01.882Z,991.999
2023-03-29T01:55:03.259Z,991.9429
2023-03-29T01:56:01.869Z,991.9429
2023-03-29T01:57:01.417Z,991.9429
2023-03-29T01:58:01.826Z,992.0203
2023-03-29T01:59:04.101Z,991.8867
2023-03-29T02:00:01.843Z,991.8654
2023-03-29T02:01:04.272Z,991.8093
2023-03-29T02:02:01.716Z,991.8442
2023-03-29T02:03:02.283Z,991.9481
2023-03-29T02:04:01.715Z,992.0102
2023-03-29T02:05:02.220Z,991.9319
2023-03-29T02:06:01.655Z,991.8821
2023-03-29T02:07:02.192Z,991.917
2023-03-29T02:08:01.656Z,991.8821
2023-03-29T02:09:02.109Z,991.9383
2023-03-29T02:10:01.662Z,991.8182
2023-03-29T02:11:02.417Z,991.8259
2023-03-29T02:12:01.552Z,992.0506
2023-03-29T02:13:02.030Z,991.9319
2023-03-29T02:14:01.559Z,991.8195
2023-03-29T02:15:02.069Z,991.7847
2023-03-29T02:16:03.256Z,991.8204
2023-03-29T02:17:02.191Z,991.7847
2023-03-29T02:18:03.321Z,991.8821
2023-03-29T02:19:02.110Z,991.8544
2023-03-29T02:20:01.685Z,991.7421
2023-03-29T02:21:04.068Z,991.777
2023-03-29T02:22:01.542Z,991.8547
2023-03-29T02:23:02.045Z,991.8259
2023-03-29T02:24:01.473Z,991.7135
2023-03-29T02:25:02.031Z,991.6855
2023-03-29T02:26:01.459Z,991.6922
2023-03-29T02:27:01.977Z,991.5799
2023-03-29T02:28:03.072Z,991.6361
2023-03-29T02:29:01.931Z,991.6293
2023-03-29T02:30:01.403Z,991.5169
2023-03-29T02:31:02.126Z,991.6293
2023-03-29T02:32:03.027Z,991.6922
2023-03-29T02:33:01.968Z,991.6988
2023-03-29T02:34:03.954Z,991.5509
2023-03-29T02:35:01.718Z,991.5858
2023-03-29T02:36:02.262Z,991.279
2023-03-29T02:37:03.395Z,991.4938
2023-03-29T02:38:02.185Z,991.2926
2023-03-29T02:39:01.629Z,991.4249
2023-03-29T02:40:02.113Z,991.3607
2023-03-29T02:41:01.718Z,991.4288
2023-03-29T02:42:02.030Z,991.4
2023-03-29T02:43:03.168Z,991.3642
2023-03-29T02:44:01.956Z,991.3072
2023-03-29T02:45:01.479Z,991.25
2023-03-29T02:46:01.959Z,991.4038
2023-03-29T02:47:01.434Z,991.1148
2023-03-29T02:48:02.020Z,991.2193
2023-03-29T02:49:03.072Z,991.1068
2023-03-29T02:50:01.876Z,991.1068
2023-03-29T02:51:02.638Z,991.197
2023-03-29T02:52:01.795Z,991.0907
2023-03-29T02:53:02.283Z,991.3003
2023-03-29T02:54:03.411Z,991.1094
2023-03-29T02:55:03.880Z,991.1444
2023-03-29T02:56:01.731Z,990.9815
2023-03-29T02:57:02.215Z,991.0233
2023-03-29T02:58:01.714Z,991.1002
2023-03-29T02:59:02.194Z,991.0361
2023-03-29T03:00:01.634Z,990.8672
2023-03-29T03:01:02.346Z,991.0776
2023-03-29T03:02:01.688Z,990.9504
2023-03-29T03:03:02.435Z,990.9992
2023-03-29T03:04:01.698Z,991.0341
2023-03-29T03:05:02.123Z,990.7799
2023-03-29T03:06:01.624Z,990.8923
2023-03-29T03:07:02.137Z,990.6741
2023-03-29T03:08:03.225Z,990.7304
2023-03-29T03:09:03.707Z,990.8431
2023-03-29T03:10:01.569Z,990.7226
2023-03-29T03:11:03.984Z,990.756
2023-03-29T03:12:01.583Z,990.79
2023-03-29T03:13:02.092Z,990.8446
2023-03-29T03:14:01.488Z,990.7434
2023-03-29T03:15:01.963Z,990.798
2023-03-29T03:16:01.536Z,990.8469
2023-03-29T03:17:04.528Z,991.0569
2023-03-29T03:18:01.489Z,990.8889
2023-03-29T03:19:01.975Z,990.8469
2023-03-29T03:20:01.394Z,990.7562
2023-03-29T03:21:02.370Z,990.7348
2023-03-29T03:22:01.408Z,990.6727
2023-03-29T03:23:01.873Z,990.7155
2023-03-29T03:24:01.436Z,990.7706
2023-03-29T03:25:02.124Z,990.8058
2023-03-29T03:26:01.649Z,990.6578
2023-03-29T03:27:02.128Z,990.798
2023-03-29T03:28:01.556Z,990.8469
2023-03-29T03:29:02.060Z,990.8595
2023-03-29T03:30:01.549Z,990.6902
2023-03-29T03:31:02.163Z,990.7595
2023-03-29T03:32:01.511Z,990.7081
2023-03-29T03:33:02.043Z,990.7287
2023-03-29T03:34:01.461Z,990.7003
2023-03-29T03:35:01.955Z,990.672
2023-03-29T03:36:03.176Z,990.672
2023-03-29T03:37:01.982Z,990.7277
2023-03-29T03:38:01.420Z,990.7277
2023-03-29T03:39:01.884Z,990.7421
2023-03-29T03:41:02.084Z,990.7081
2023-03-29T03:42:02.263Z,990.8988
2023-03-29T03:43:01.738Z,990.7859
2023-03-29T03:44:03.871Z,990.8559
2023-03-29T03:45:03.302Z,990.8753
2023-03-29T03:46:03.958Z,990.7413
2023-03-29T03:47:01.624Z,990.8542
2023-03-29T03:48:02.210Z,990.7907
2023-03-29T03:49:01.545Z,990.8189
2023-03-29T03:50:02.033Z,990.6363
2023-03-29T03:51:03.511Z,990.5942
2023-03-29T03:52:02.033Z,990.6778
2023-03-29T03:53:01.517Z,990.6778
2023-03-29T03:54:02.013Z,990.7277
2023-03-29T03:55:01.466Z,990.6148
2023-03-29T03:56:01.936Z,990.6977
2023-03-29T03:57:03.095Z,990.67
2023-03-29T03:58:01.889Z,990.867
2023-03-29T03:59:01.425Z,990.7892
2023-03-29T04:00:01.867Z,990.7259
2023-03-29T04:01:01.452Z,990.6136
2023-03-29T04:02:03.485Z,990.8189
2023-03-29T04:03:04.213Z,990.6284
2023-03-29T04:04:01.956Z,990.607
2023-03-29T04:05:02.285Z,990.6136
2023-03-29T04:06:01.707Z,990.67
2023-03-29T04:07:02.254Z,990.5634
2023-03-29T04:08:01.722Z,990.7463
2023-03-29T04:09:02.188Z,990.7746
2023-03-29T04:10:01.676Z,990.5488
2023-03-29T04:11:02.269Z,990.836
2023-03-29T04:12:01.653Z,990.6949
2023-03-29T04:13:02.116Z,990.582
2023-03-29T04:14:03.225Z,990.6384
2023-03-29T04:15:02.044Z,990.582
2023-03-29T04:16:01.977Z,990.617
2023-03-29T04:17:02.032Z,990.652
2023-03-29T04:18:01.523Z,990.765
2023-03-29T04:19:02.030Z,990.8424
2023-03-29T04:20:01.513Z,990.652
2023-03-29T04:21:03.829Z,990.617
2023-03-29T04:22:03.066Z,990.7299
2023-03-29T04:23:01.864Z,990.7362
2023-03-29T04:24:01.306Z,990.652
2023-03-29T04:25:01.874Z,990.5666
2023-03-29T04:26:02.288Z,990.8693
2023-03-29T04:27:01.801Z,990.6424
2023-03-29T04:28:02.285Z,990.6706
2023-03-29T04:29:03.406Z,990.6495
2023-03-29T04:30:02.222Z,990.7057
2023-03-29T04:31:01.969Z,990.5645
2023-03-29T04:32:02.195Z,990.6063
2023-03-29T04:33:02.042Z,990.6346
2023-03-29T04:34:03.061Z,990.6202
2023-03-29T04:35:01.879Z,990.6134
2023-03-29T04:36:01.449Z,990.5294
2023-03-29T04:37:01.880Z,990.5723
2023-03-29T04:38:01.314Z,990.4394
2023-03-29T04:39:03.450Z,990.593
2023-03-29T04:40:03.968Z,990.34
2023-03-29T04:41:03.657Z,990.4798
2023-03-29T04:42:02.200Z,990.6777
2023-03-29T04:43:01.719Z,990.5373
2023-03-29T04:44:02.194Z,990.3842
2023-03-29T04:45:01.692Z,990.4472
2023-03-29T04:46:02.178Z,990.5294
2023-03-29T04:47:01.632Z,990.473
2023-03-29T04:48:02.203Z,990.621
2023-03-29T04:49:01.645Z,990.5072
2023-03-29T04:50:02.123Z,990.5208
2023-03-29T04:51:03.382Z,990.5773
2023-03-29T04:52:03.725Z,990.3313
2023-03-29T04:53:01.611Z,990.4858
2023-03-29T04:54:02.035Z,990.3457
2023-03-29T04:55:01.580Z,990.3878
2023-03-29T04:56:03.756Z,990.485
2023-03-29T04:57:01.607Z,990.5064
2023-03-29T04:58:02.038Z,990.3878
2023-03-29T04:59:01.575Z,990.5781
2023-03-29T05:00:02.093Z,990.4315
2023-03-29T05:01:03.335Z,990.4101
2023-03-29T05:02:02.107Z,990.375
2023-03-29T05:03:01.488Z,990.305
2023-03-29T05:04:02.211Z,990.6628
2023-03-29T05:05:01.769Z,990.3886
2023-03-29T05:06:02.273Z,990.4169
2023-03-29T05:07:01.721Z,990.5216
2023-03-29T05:08:02.301Z,990.6482
2023-03-29T05:09:01.707Z,990.6764
2023-03-29T05:10:02.273Z,990.6628
2023-03-29T05:11:02.020Z,990.6063
2023-03-29T05:12:02.361Z,990.5362
2023-03-29T05:13:01.810Z,990.5645
2023-03-29T05:14:02.283Z,990.508
2023-03-29T05:15:01.908Z,990.4451
2023-03-29T05:16:02.324Z,990.4169
2023-03-29T05:17:01.806Z,990.3965
2023-03-29T05:18:01.379Z,990.4944
2023-03-29T05:19:03.629Z,990.5723
2023-03-29T05:20:01.463Z,990.4808
2023-03-29T05:21:02.189Z,990.4944
2023-03-29T05:22:01.466Z,990.3693
2023-03-29T05:23:01.997Z,990.4043
2023-03-29T05:24:01.467Z,990.4472
2023-03-29T05:25:02.049Z,990.4326
2023-03-29T05:26:01.465Z,990.3625
2023-03-29T05:27:02.055Z,990.4472
2023-03-29T05:28:01.580Z,990.4326
2023-03-29T05:29:02.139Z,990.5655
2023-03-29T05:30:01.641Z,990.5373
2023-03-29T05:31:02.484Z,990.4472
2023-03-29T05:32:01.781Z,990.5171
2023-03-29T05:33:02.234Z,990.3989
2023-03-29T05:34:01.699Z,990.3215
2023-03-29T05:35:02.202Z,990.6941
2023-03-29T05:36:01.749Z,990.3711
2023-03-29T05:37:01.337Z,990.4062
2023-03-29T05:38:03.544Z,990.652
2023-03-29T05:39:01.374Z,990.3711
2023-03-29T05:40:06.107Z,990.617
2023-03-29T05:41:01.571Z,990.617
2023-03-29T05:42:03.553Z,990.617
2023-03-29T05:43:03.008Z,990.617
2023-03-29T05:44:01.872Z,990.582
2023-03-29T05:46:01.876Z,990.3711
2023-03-29T05:47:02.274Z,990.617
2023-03-29T05:48:01.931Z,990.617
2023-03-29T05:49:03.957Z,990.3361
2023-03-29T05:50:01.715Z,990.582
2023-03-29T05:51:02.387Z,990.582
2023-03-29T05:52:01.622Z,990.6384
2023-03-29T05:53:02.113Z,990.6102
2023-03-29T05:54:01.637Z,990.4219
2023-03-29T05:55:03.839Z,990.4769
2023-03-29T05:56:01.541Z,990.4219
2023-03-29T05:57:03.746Z,990.582
2023-03-29T05:58:01.536Z,990.582
2023-03-29T05:59:03.710Z,990.2593
2023-03-29T06:00:01.466Z,990.582
2023-03-29T06:01:02.169Z,990.582
2023-03-29T06:02:03.172Z,990.3361
2023-03-29T06:03:13.658Z,990.3644
2023-03-29T06:04:01.440Z,990.582
2023-03-29T06:05:01.923Z,990.3644
2023-03-29T06:06:01.333Z,990.582
2023-03-29T06:07:01.799Z,990.617
2023-03-29T06:08:02.354Z,990.3644
2023-03-29T06:09:01.792Z,990.3711
2023-03-29T06:10:02.273Z,990.1735
2023-03-29T06:11:04.869Z,990.3429
2023-03-29T06:12:02.275Z,990.3429
2023-03-29T06:13:01.718Z,990.4483
2023-03-29T06:14:02.191Z,990.7362
2023-03-29T06:15:01.705Z,990.3071
2023-03-29T06:16:02.124Z,990.3071
2023-03-29T06:17:03.375Z,990.3492
2023-03-29T06:18:02.156Z,990.4472
2023-03-29T06:19:01.551Z,990.3761
2023-03-29T06:20:03.705Z,990.0655
2023-03-29T06:21:01.751Z,990.1784
2023-03-29T06:22:02.037Z,990.192
2023-03-29T06:23:01.481Z,990.2192
2023-03-29T06:24:01.949Z,990.1697
2023-03-29T06:25:01.476Z,990.3039
2023-03-29T06:26:01.964Z,990.0568
2023-03-29T06:27:01.508Z,990.1336
2023-03-29T06:28:01.957Z,990.1543
2023-03-29T06:29:01.393Z,990.0978
2023-03-29T06:30:01.871Z,990.1817
2023-03-29T06:31:01.642Z,990.1385
2023-03-29T06:32:01.914Z,990.1035
2023-03-29T06:33:01.391Z,990.1027
2023-03-29T06:34:01.796Z,990.166
2023-03-29T06:35:02.287Z,990.1728
2023-03-29T06:36:01.870Z,990.2146
2023-03-29T06:37:02.303Z,990.3208
2023-03-29T06:38:01.703Z,990.1863
2023-03-29T06:39:02.266Z,990.2779
2023-03-29T06:40:01.710Z,990.3687
2023-03-29T06:41:02.532Z,990.4252
2023-03-29T06:42:09.994Z,990.3687
2023-03-29T06:43:02.192Z,990.4252
2023-03-29T06:44:03.369Z,990.3404
2023-03-29T06:45:02.111Z,990.3122
2023-03-29T06:46:01.564Z,990.1991
2023-03-29T06:47:02.060Z,990.3687
2023-03-29T06:48:01.580Z,990.4106
2023-03-29T06:49:02.297Z,990.2692
2023-03-29T06:50:02.941Z,990.3823
2023-03-29T06:51:01.821Z,990.4724
2023-03-29T06:52:03.907Z,990.3247
2023-03-29T06:53:01.648Z,990.2263
2023-03-29T06:54:02.128Z,990.2964
2023-03-29T06:55:03.228Z,990.4087
2023-03-29T06:56:02.048Z,990.4367
2023-03-29T06:57:01.593Z,990.4087
2023-03-29T06:58:03.745Z,990.4087
2023-03-29T06:59:01.467Z,990.316
2023-03-29T07:00:02.046Z,990.4215
2023-03-29T07:01:01.650Z,990.2587
2023-03-29T07:02:03.717Z,990.1807
2023-03-29T07:03:03.207Z,990.3425
2023-03-29T07:04:01.980Z,990.321
2023-03-29T07:05:03.079Z,990.3629
2023-03-29T07:06:01.949Z,990.1649
2023-03-29T07:07:01.667Z,990.1649
2023-03-29T07:08:01.886Z,990.433
2023-03-29T07:09:01.784Z,990.3765
2023-03-29T07:10:01.895Z,990.4048
2023-03-29T07:11:01.667Z,990.2421
2023-03-29T07:12:01.872Z,990.3191
2023-03-29T07:13:01.461Z,990.2911
2023-03-29T07:14:01.874Z,990.4108
2023-03-29T07:15:01.326Z,990.2686
2023-03-29T07:16:01.927Z,990.1837
2023-03-29T07:17:01.338Z,990.3943
2023-03-29T07:18:01.912Z,990.1761
2023-03-29T07:19:01.330Z,990.2101
2023-03-29T07:20:01.824Z,990.2381
2023-03-29T07:21:01.559Z,990.2384
2023-03-29T07:22:01.865Z,990.2588
2023-03-29T07:23:01.670Z,990.3075
2023-03-29T07:24:01.871Z,990.3777
2023-03-29T07:25:01.427Z,990.2645
2023-03-29T07:26:01.967Z,990.334
2023-03-29T07:27:04.538Z,990.249
2023-03-29T07:28:02.147Z,990.2357
2023-03-29T07:29:01.630Z,990.4044
2023-03-29T07:30:02.136Z,990.2482
2023-03-29T07:31:02.150Z,990.2199
2023-03-29T07:32:03.878Z,990.2902
2023-03-29T07:33:01.880Z,990.3955
2023-03-29T07:34:02.186Z,990.4858
2023-03-29T07:35:01.740Z,990.3305
2023-03-29T07:36:01.446Z,990.3305
2023-03-29T07:37:03.628Z,990.3939
2023-03-29T07:38:01.556Z,990.3226
2023-03-29T07:39:02.057Z,990.5534
2023-03-29T07:40:01.582Z,990.5534
2023-03-29T07:41:04.195Z,990.5319
2023-03-29T07:42:01.751Z,990.4821
2023-03-29T07:43:03.941Z,990.524
2023-03-29T07:44:03.337Z,990.3821
2023-03-29T07:45:01.313Z,990.3325
2023-03-29T07:46:03.570Z,990.3315
2023-03-29T07:47:01.401Z,990.3304
2023-03-29T07:48:02.029Z,990.5616
2023-03-29T07:49:01.554Z,990.3141
2023-03-29T07:50:02.212Z,990.5595
2023-03-29T07:51:02.069Z,990.5724
2023-03-29T07:52:01.325Z,990.3823
2023-03-29T07:53:01.887Z,990.4797
2023-03-29T07:54:01.509Z,990.6627
2023-03-29T07:55:02.191Z,990.408
2023-03-29T07:56:01.973Z,990.45
2023-03-29T07:57:01.673Z,990.5188
2023-03-29T07:58:01.392Z,990.4138
2023-03-29T07:59:02.042Z,990.3074
2023-03-29T08:00:02.001Z,990.4829
2023-03-29T08:01:03.452Z,990.2291
2023-03-29T08:02:02.052Z,990.3142
2023-03-29T08:03:01.535Z,990.2927
2023-03-29T08:04:01.990Z,990.2927
2023-03-29T08:05:01.584Z,990.2643
2023-03-29T08:06:01.975Z,990.4266
2023-03-29T08:07:01.393Z,990.3631
2023-03-29T08:08:01.885Z,990.3631
2023-03-29T08:09:01.403Z,990.4334
2023-03-29T08:10:01.921Z,990.4734
2023-03-29T08:11:01.459Z,990.3967
2023-03-29T08:12:01.771Z,990.5012
2023-03-29T08:13:02.359Z,990.3399
2023-03-29T08:14:01.814Z,990.3615
2023-03-29T08:15:02.323Z,990.3961
2023-03-29T08:16:01.789Z,990.4022
2023-03-29T08:17:02.310Z,990.367
2023-03-29T08:18:01.777Z,990.2819
2023-03-29T08:19:02.201Z,990.2175
2023-03-29T08:20:01.719Z,990.4918
2023-03-29T08:21:02.409Z,990.3583
2023-03-29T08:22:01.634Z,990.3152
2023-03-29T08:23:02.134Z,990.2017
2023-03-29T08:24:01.628Z,990.3359
2023-03-29T08:25:02.124Z,990.0873
2023-03-29T08:26:01.649Z,990.292
2023-03-29T08:27:03.712Z,990.3057
2023-03-29T08:28:03.223Z,990.3761
2023-03-29T08:29:02.084Z,990.1558
2023-03-29T08:30:01.562Z,990.2334
2023-03-29T08:31:02.228Z,990.113
2023-03-29T08:32:01.510Z,990.0483
2023-03-29T08:33:01.992Z,990.1471
2023-03-29T08:34:03.066Z,990.252
2023-03-29T08:35:01.967Z,990.1665
2023-03-29T08:36:01.405Z,990.1234
2023-03-29T08:37:03.584Z,990.3074
2023-03-29T08:38:01.399Z,990.2635
2023-03-29T08:39:01.884Z,990.2351
2023-03-29T08:40:01.311Z,990.2706
2023-03-29T08:41:03.665Z,990.3203
2023-03-29T08:42:02.271Z,990.1559
2023-03-29T08:43:01.835Z,990.163
2023-03-29T08:44:02.281Z,990.0854
2023-03-29T08:45:01.721Z,990.205
2023-03-29T08:46:02.217Z,990.2903
2023-03-29T08:47:01.826Z,990.2392
2023-03-29T08:48:03.931Z,990.0758
2023-03-29T08:49:01.763Z,990.0324
2023-03-29T08:50:02.193Z,990.0747
2023-03-29T08:51:01.935Z,990.0247
2023-03-29T08:52:02.121Z,990.0455
2023-03-29T08:53:01.675Z,990.0031
2023-03-29T08:54:02.144Z,989.961
2023-03-29T08:55:01.557Z,990.0739
2023-03-29T08:56:02.115Z,990.1723
2023-03-29T08:57:01.624Z,990.0933
2023-03-29T08:58:02.035Z,990.1001
2023-03-29T08:59:01.539Z,989.9296
2023-03-29T09:00:02.018Z,989.8864
2023-03-29T09:01:01.723Z,989.8002
2023-03-29T09:02:02.059Z,989.9413
2023-03-29T09:03:01.577Z,989.7707
2023-03-29T09:04:02.061Z,989.6925
2023-03-29T09:05:01.468Z,989.7974
2023-03-29T09:06:01.976Z,989.8816
2023-03-29T09:07:01.475Z,989.7317
2023-03-29T09:08:01.945Z,989.6834
2023-03-29T09:09:01.567Z,989.7872
2023-03-29T09:10:01.435Z,989.5696
2023-03-29T09:11:03.857Z,989.736
2023-03-29T09:12:01.295Z,989.8629
2023-03-29T09:13:01.827Z,989.806
2023-03-29T09:14:02.265Z,989.8481
2023-03-29T09:15:03.418Z,989.7676
2023-03-29T09:16:03.978Z,989.8302
2023-03-29T09:17:01.725Z,989.6793
2023-03-29T09:18:02.239Z,989.7488
2023-03-29T09:19:01.729Z,989.7545
2023-03-29T09:20:03.820Z,989.8451
2023-03-29T09:21:01.850Z,989.8933
2023-03-29T09:22:02.121Z,989.8933
2023-03-29T09:23:01.582Z,989.722
2023-03-29T09:24:03.705Z,989.7633
2023-03-29T09:25:01.550Z,989.644
2023-03-29T09:26:02.032Z,989.6417
2023-03-29T09:27:01.468Z,989.612
2023-03-29T09:28:01.990Z,989.6593
2023-03-29T09:29:01.475Z,989.7192
2023-03-29T09:30:01.970Z,989.6767
2023-03-29T09:31:01.622Z,989.7329
2023-03-29T09:32:01.919Z,989.7386
2023-03-29T09:33:03.188Z,989.7654
2023-03-29T09:34:03.471Z,989.7796
2023-03-29T09:35:03.944Z,989.7377
2023-03-29T09:36:03.601Z,989.8527
2023-03-29T09:37:02.264Z,989.7112
2023-03-29T09:38:01.704Z,989.7386
2023-03-29T09:39:02.220Z,989.7377
2023-03-29T09:40:04.540Z,989.7788
2023-03-29T09:41:02.454Z,989.7226
2023-03-29T09:42:03.301Z,989.8005
2023-03-29T09:43:02.117Z,989.7023
2023-03-29T09:44:01.577Z,989.7571
2023-03-29T09:45:03.708Z,989.8929
2023-03-29T09:46:01.638Z,989.8005
2023-03-29T09:47:02.048Z,989.7511
2023-03-29T09:48:01.491Z,989.6855
2023-03-29T09:49:01.974Z,989.7563
2023-03-29T09:50:01.514Z,989.8624
2023-03-29T09:51:03.856Z,989.6832
2023-03-29T09:52:01.396Z,989.7049
2023-03-29T09:53:03.576Z,989.9332
2023-03-29T09:54:01.316Z,989.7109
2023-03-29T09:55:01.873Z,989.8596
2023-03-29T09:56:02.304Z,989.7523
2023-03-29T09:57:03.450Z,989.6638
2023-03-29T09:58:02.290Z,989.6076
2023-03-29T09:59:01.762Z,989.7463
2023-03-29T10:00:03.888Z,989.6883
2023-03-29T10:01:02.153Z,989.6758
2023-03-29T10:02:02.197Z,989.7934
2023-03-29T10:03:01.732Z,989.7069
2023-03-29T10:04:02.181Z,989.7194
2023-03-29T10:05:03.234Z,989.6589
2023-03-29T10:06:02.035Z,989.6909
2023-03-29T10:07:01.562Z,989.7037
2023-03-29T10:08:02.066Z,989.824
2023-03-29T10:09:01.501Z,989.7609
2023-03-29T10:10:01.990Z,989.696
2023-03-29T10:11:03.535Z,989.6811
2023-03-29T10:12:01.955Z,989.5865
2023-03-29T10:13:01.386Z,989.6428
2023-03-29T10:14:01.873Z,989.9761
2023-03-29T10:15:01.460Z,989.5157
2023-03-29T10:16:01.959Z,989.6431
2023-03-29T10:17:01.399Z,989.4704
2023-03-29T10:18:02.982Z,989.5276
2023-03-29T10:19:01.633Z,989.676
2023-03-29T10:20:03.980Z,989.5628
2023-03-29T10:21:01.931Z,989.5479
2023-03-29T10:22:02.035Z,989.5825
2023-03-29T10:23:03.158Z,989.6099
2023-03-29T10:24:02.078Z,989.5161
2023-03-29T10:25:01.502Z,989.6925
2023-03-29T10:26:01.970Z,989.4681
2023-03-29T10:27:01.398Z,989.4255
2023-03-29T10:28:01.865Z,989.4589
2023-03-29T10:29:01.392Z,989.5329
2023-03-29T10:30:03.566Z,989.6545
2023-03-29T10:31:01.615Z,989.4619
2023-03-29T10:32:01.866Z,989.3877
2023-03-29T10:33:03.969Z,989.5139
2023-03-29T10:34:01.789Z,989.3215
2023-03-29T10:35:02.278Z,989.5711
2023-03-29T10:36:03.450Z,989.4969
2023-03-29T10:37:02.197Z,989.3955
2023-03-29T10:38:01.705Z,989.5366
2023-03-29T10:39:05.763Z,989.3269
2023-03-29T10:40:01.624Z,989.392
2023-03-29T10:41:02.293Z,989.4916
2023-03-29T10:42:01.657Z,989.3189
2023-03-29T10:43:02.100Z,989.4642
2023-03-29T10:44:01.556Z,989.4206
2023-03-29T10:45:02.038Z,989.3496
2023-03-29T10:46:01.553Z,989.3138
2023-03-29T10:47:03.731Z,989.3347
2023-03-29T10:48:03.187Z,989.2938
2023-03-29T10:49:01.951Z,989.2583
2023-03-29T10:50:01.493Z,989.3729
2023-03-29T10:51:02.258Z,989.1834
2023-03-29T10:52:03.083Z,989.383
2023-03-29T10:53:01.906Z,989.226
2023-03-29T10:54:01.428Z,989.4036
2023-03-29T10:55:03.560Z,989.2171
2023-03-29T10:56:01.363Z,989.1744
2023-03-29T10:57:01.888Z,989.1636
2023-03-29T10:58:03.963Z,989.1764
2023-03-29T10:59:01.825Z,989.2574
2023-03-29T11:00:02.308Z,989.1084
2023-03-29T11:01:02.073Z,989.2577
2023-03-29T11:02:03.292Z,989.0857
2023-03-29T11:03:02.182Z,989.0203
2023-03-29T11:04:01.684Z,989.1394
2023-03-29T11:05:02.120Z,989.1522
2023-03-29T11:06:01.620Z,989.2006
2023-03-29T11:07:02.309Z,989.1086
2023-03-29T11:08:03.479Z,989.1067
2023-03-29T11:09:03.073Z,989.0799
2023-03-29T11:10:01.883Z,989.0148
2023-03-29T11:11:01.537Z,988.9216
2023-03-29T11:12:15.095Z,989.064
2023-03-29T11:13:03.166Z,989.1086
2023-03-29T11:14:02.130Z,989.0584
2023-03-29T11:15:01.877Z,989.0157
2023-03-29T11:16:03.925Z,989.1399
2023-03-29T11:17:01.790Z,988.891
2023-03-29T11:18:01.423Z,988.939
2023-03-29T11:19:01.864Z,989.1399
2023-03-29T11:20:04.439Z,988.9976
2023-03-29T11:21:02.307Z,989.0095
2023-03-29T11:22:01.800Z,988.9518
2023-03-29T11:23:02.265Z,988.9235
2023-03-29T11:24:01.816Z,988.9677
2023-03-29T11:25:01.415Z,989.1641
2023-03-29T11:26:03.865Z,988.9343
2023-03-29T11:27:02.291Z,988.9356
2023-03-29T11:28:01.742Z,988.9848
2023-03-29T11:29:02.281Z,988.9549
2023-03-29T11:30:01.736Z,988.906
2023-03-29T11:31:04.031Z,988.9287
2023-03-29T11:32:01.691Z,988.8988
2023-03-29T11:33:02.145Z,988.8701
2023-03-29T11:34:01.619Z,988.9677
2023-03-29T11:35:02.135Z,988.9976
2023-03-29T11:36:01.667Z,988.9138
2023-03-29T11:37:02.127Z,988.8495
2023-03-29T11:38:01.627Z,988.8486
2023-03-29T11:39:02.134Z,988.9621
2023-03-29T11:40:01.538Z,988.9312
2023-03-29T11:41:02.271Z,988.9727
2023-03-29T11:42:01.541Z,988.8224
2023-03-29T11:43:02.028Z,988.8087
2023-03-29T11:44:03.154Z,988.8087
2023-03-29T11:45:01.938Z,988.9235
2023-03-29T11:46:01.487Z,988.8084
2023-03-29T11:47:03.750Z,988.8623
2023-03-29T11:48:01.421Z,988.867
2023-03-29T11:49:01.869Z,988.8957